sensor_id;sensor_type;location;lat;lon;timestamp;P1;durP1;ratioP1;P2;durP2;ratioP2
7661;SDS011;30314;48.184;11.510;2023-05-10T00:00:44;1.30;;;0.70;;
7661;SDS011;30314;48.184;11.510;2023-05-10T00:03:11;3.40;;;1.10;;
7661;SDS011;30314;48.184;11.510;2023-05-10T00:05:38;1.57;;;1.17;;
7661;SDS011;30314;48.184;11.510;2023-05-10T00:08:05;1.00;;;0.80;;
7661;SDS011;30314;48.184;11.510;2023-05-10T00:10:31;3.97;;;1.20;;
7661;SDS011;30314;48.184;11.510;2023-05-10T00:12:58;1.37;;;1.10;;
7661;SDS011;30314;48.184;11.510;2023-05-10T00:15:24;2.73;;;0.60;;
7661;SDS011;30314;48.184;11.510;2023-05-10T00:17:51;2.13;;;0.93;;
7661;SDS011;30314;48.184;11.510;2023-05-10T00:20:17;1.23;;;0.70;;
7661;SDS011;30314;48.184;11.510;2023-05-10T00:22:44;4.23;;;0.93;;
7661;SDS011;30314;48.184;11.510;2023-05-10T00:25:11;1.20;;;0.73;;
7661;SDS011;30314;48.184;11.510;2023-05-10T00:27:37;1.10;;;0.70;;
7661;SDS011;30314;48.184;11.510;2023-05-10T00:30:04;1.50;;;1.00;;
7661;SDS011;30314;48.184;11.510;2023-05-10T00:32:33;2.00;;;0.63;;
7661;SDS011;30314;48.184;11.510;2023-05-10T00:35:00;1.50;;;0.60;;
7661;SDS011;30314;48.184;11.510;2023-05-10T00:37:26;2.60;;;1.20;;
7661;SDS011;30314;48.184;11.510;2023-05-10T00:39:54;2.83;;;1.13;;
7661;SDS011;30314;48.184;11.510;2023-05-10T00:42:20;2.93;;;0.57;;
7661;SDS011;30314;48.184;11.510;2023-05-10T00:44:47;1.50;;;0.67;;
7661;SDS011;30314;48.184;11.510;2023-05-10T00:47:13;2.07;;;0.70;;
7661;SDS011;30314;48.184;11.510;2023-05-10T00:49:40;1.43;;;0.60;;
7661;SDS011;30314;48.184;11.510;2023-05-10T00:52:08;2.30;;;0.67;;
7661;SDS011;30314;48.184;11.510;2023-05-10T00:54:35;1.20;;;0.63;;
7661;SDS011;30314;48.184;11.510;2023-05-10T00:57:02;1.10;;;0.50;;
7661;SDS011;30314;48.184;11.510;2023-05-10T00:59:29;1.70;;;0.60;;
7661;SDS011;30314;48.184;11.510;2023-05-10T01:01:56;2.20;;;0.90;;
7661;SDS011;30314;48.184;11.510;2023-05-10T01:04:23;1.20;;;0.50;;
7661;SDS011;30314;48.184;11.510;2023-05-10T01:06:52;1.00;;;0.63;;
7661;SDS011;30314;48.184;11.510;2023-05-10T01:09:20;3.07;;;0.67;;
7661;SDS011;30314;48.184;11.510;2023-05-10T01:11:47;1.10;;;0.70;;
7661;SDS011;30314;48.184;11.510;2023-05-10T01:14:15;1.47;;;0.70;;
7661;SDS011;30314;48.184;11.510;2023-05-10T01:16:45;1.30;;;0.70;;
7661;SDS011;30314;48.184;11.510;2023-05-10T01:19:25;1.23;;;0.50;;
7661;SDS011;30314;48.184;11.510;2023-05-10T01:27:15;2.03;;;0.47;;
7661;SDS011;30314;48.184;11.510;2023-05-10T01:30:01;0.80;;;0.40;;
7661;SDS011;30314;48.184;11.510;2023-05-10T01:38:04;1.60;;;0.60;;
7661;SDS011;30314;48.184;11.510;2023-05-10T01:43:19;1.57;;;0.40;;
7661;SDS011;30314;48.184;11.510;2023-05-10T01:48:26;2.60;;;0.40;;
7661;SDS011;30314;48.184;11.510;2023-05-10T01:50:54;1.50;;;0.67;;
7661;SDS011;30314;48.184;11.510;2023-05-10T01:53:22;1.87;;;1.17;;
7661;SDS011;30314;48.184;11.510;2023-05-10T01:55:51;0.90;;;0.40;;
7661;SDS011;30314;48.184;11.510;2023-05-10T01:58:21;0.90;;;0.40;;
7661;SDS011;30314;48.184;11.510;2023-05-10T02:00:51;0.90;;;0.50;;
7661;SDS011;30314;48.184;11.510;2023-05-10T02:03:23;0.80;;;0.40;;
7661;SDS011;30314;48.184;11.510;2023-05-10T02:05:51;2.33;;;0.47;;
7661;SDS011;30314;48.184;11.510;2023-05-10T02:08:20;2.00;;;0.40;;
7661;SDS011;30314;48.184;11.510;2023-05-10T02:10:49;1.17;;;0.40;;
7661;SDS011;30314;48.184;11.510;2023-05-10T02:13:18;2.03;;;0.33;;
7661;SDS011;30314;48.184;11.510;2023-05-10T02:15:46;1.20;;;0.40;;
7661;SDS011;30314;48.184;11.510;2023-05-10T02:18:15;1.20;;;0.50;;
7661;SDS011;30314;48.184;11.510;2023-05-10T02:20:43;0.80;;;0.50;;
7661;SDS011;30314;48.184;11.510;2023-05-10T02:23:14;0.80;;;0.30;;
7661;SDS011;30314;48.184;11.510;2023-05-10T02:25:43;0.90;;;0.40;;
7661;SDS011;30314;48.184;11.510;2023-05-10T02:28:12;1.80;;;0.40;;
7661;SDS011;30314;48.184;11.510;2023-05-10T02:30:40;1.07;;;0.60;;
7661;SDS011;30314;48.184;11.510;2023-05-10T02:33:09;1.10;;;0.53;;
7661;SDS011;30314;48.184;11.510;2023-05-10T02:35:37;1.13;;;0.33;;
7661;SDS011;30314;48.184;11.510;2023-05-10T02:38:04;1.77;;;0.73;;
7661;SDS011;30314;48.184;11.510;2023-05-10T02:40:32;1.30;;;0.40;;
7661;SDS011;30314;48.184;11.510;2023-05-10T02:42:59;0.80;;;0.30;;
7661;SDS011;30314;48.184;11.510;2023-05-10T02:45:30;1.10;;;0.50;;
7661;SDS011;30314;48.184;11.510;2023-05-10T02:47:58;1.10;;;0.37;;
7661;SDS011;30314;48.184;11.510;2023-05-10T02:50:27;2.07;;;0.50;;
7661;SDS011;30314;48.184;11.510;2023-05-10T02:52:59;1.23;;;0.40;;
7661;SDS011;30314;48.184;11.510;2023-05-10T02:55:31;0.83;;;0.40;;
7661;SDS011;30314;48.184;11.510;2023-05-10T02:58:02;0.97;;;0.40;;
7661;SDS011;30314;48.184;11.510;2023-05-10T03:00:29;2.50;;;0.40;;
7661;SDS011;30314;48.184;11.510;2023-05-10T03:02:56;0.90;;;0.30;;
7661;SDS011;30314;48.184;11.510;2023-05-10T03:05:23;0.77;;;0.33;;
7661;SDS011;30314;48.184;11.510;2023-05-10T03:07:50;1.57;;;0.30;;
7661;SDS011;30314;48.184;11.510;2023-05-10T03:10:17;1.93;;;0.50;;
7661;SDS011;30314;48.184;11.510;2023-05-10T03:12:50;1.40;;;0.50;;
7661;SDS011;30314;48.184;11.510;2023-05-10T03:18:22;0.90;;;0.40;;
7661;SDS011;30314;48.184;11.510;2023-05-10T03:20:57;1.20;;;0.60;;
7661;SDS011;30314;48.184;11.510;2023-05-10T03:26:26;0.90;;;0.40;;
7661;SDS011;30314;48.184;11.510;2023-05-10T03:29:05;1.30;;;0.50;;
7661;SDS011;30314;48.184;11.510;2023-05-10T03:31:32;4.20;;;0.40;;
7661;SDS011;30314;48.184;11.510;2023-05-10T03:33:59;2.70;;;0.40;;
7661;SDS011;30314;48.184;11.510;2023-05-10T03:36:26;1.40;;;0.60;;
7661;SDS011;30314;48.184;11.510;2023-05-10T03:38:53;1.20;;;0.60;;
7661;SDS011;30314;48.184;11.510;2023-05-10T03:41:20;1.30;;;0.60;;
7661;SDS011;30314;48.184;11.510;2023-05-10T03:43:47;0.90;;;0.30;;
7661;SDS011;30314;48.184;11.510;2023-05-10T03:46:14;1.13;;;0.53;;
7661;SDS011;30314;48.184;11.510;2023-05-10T03:48:41;1.40;;;0.43;;
7661;SDS011;30314;48.184;11.510;2023-05-10T03:51:07;1.63;;;0.67;;
7661;SDS011;30314;48.184;11.510;2023-05-10T03:53:34;0.93;;;0.40;;
7661;SDS011;30314;48.184;11.510;2023-05-10T03:56:00;2.70;;;0.50;;
7661;SDS011;30314;48.184;11.510;2023-05-10T03:58:27;0.80;;;0.43;;
7661;SDS011;30314;48.184;11.510;2023-05-10T04:00:53;1.00;;;0.50;;
7661;SDS011;30314;48.184;11.510;2023-05-10T04:03:20;1.57;;;0.50;;
7661;SDS011;30314;48.184;11.510;2023-05-10T04:05:47;2.10;;;0.50;;
7661;SDS011;30314;48.184;11.510;2023-05-10T04:08:13;3.60;;;0.60;;
7661;SDS011;30314;48.184;11.510;2023-05-10T04:10:42;0.90;;;0.43;;
7661;SDS011;30314;48.184;11.510;2023-05-10T04:13:09;1.53;;;0.33;;
7661;SDS011;30314;48.184;11.510;2023-05-10T04:15:35;1.53;;;0.70;;
7661;SDS011;30314;48.184;11.510;2023-05-10T04:18:02;1.30;;;0.40;;
7661;SDS011;30314;48.184;11.510;2023-05-10T04:20:31;0.90;;;0.40;;
7661;SDS011;30314;48.184;11.510;2023-05-10T04:22:58;1.73;;;0.40;;
7661;SDS011;30314;48.184;11.510;2023-05-10T04:25:25;3.60;;;0.40;;
7661;SDS011;30314;48.184;11.510;2023-05-10T04:27:51;1.03;;;0.60;;
7661;SDS011;30314;48.184;11.510;2023-05-10T04:30:18;0.80;;;0.33;;
7661;SDS011;30314;48.184;11.510;2023-05-10T04:32:45;1.80;;;0.50;;
7661;SDS011;30314;48.184;11.510;2023-05-10T04:35:11;2.83;;;0.40;;
7661;SDS011;30314;48.184;11.510;2023-05-10T04:37:38;1.30;;;0.40;;
7661;SDS011;30314;48.184;11.510;2023-05-10T04:40:05;1.00;;;0.40;;
7661;SDS011;30314;48.184;11.510;2023-05-10T04:42:32;4.00;;;0.60;;
7661;SDS011;30314;48.184;11.510;2023-05-10T04:44:58;2.07;;;0.60;;
7661;SDS011;30314;48.184;11.510;2023-05-10T04:47:25;1.30;;;0.37;;
7661;SDS011;30314;48.184;11.510;2023-05-10T04:49:51;1.00;;;0.40;;
7661;SDS011;30314;48.184;11.510;2023-05-10T04:52:18;1.17;;;0.40;;
7661;SDS011;30314;48.184;11.510;2023-05-10T04:54:45;1.63;;;0.40;;
7661;SDS011;30314;48.184;11.510;2023-05-10T04:57:11;1.13;;;0.43;;
7661;SDS011;30314;48.184;11.510;2023-05-10T04:59:38;1.77;;;0.50;;
7661;SDS011;30314;48.184;11.510;2023-05-10T05:02:04;1.10;;;0.43;;
7661;SDS011;30314;48.184;11.510;2023-05-10T05:04:31;1.10;;;0.30;;
7661;SDS011;30314;48.184;11.510;2023-05-10T05:06:58;1.00;;;0.40;;
7661;SDS011;30314;48.184;11.510;2023-05-10T05:09:24;1.10;;;0.40;;
7661;SDS011;30314;48.184;11.510;2023-05-10T05:11:51;1.00;;;0.40;;
7661;SDS011;30314;48.184;11.510;2023-05-10T05:14:17;0.90;;;0.40;;
7661;SDS011;30314;48.184;11.510;2023-05-10T05:16:44;2.13;;;0.53;;
7661;SDS011;30314;48.184;11.510;2023-05-10T05:19:10;2.20;;;0.30;;
7661;SDS011;30314;48.184;11.510;2023-05-10T05:21:37;1.17;;;0.40;;
7661;SDS011;30314;48.184;11.510;2023-05-10T05:24:04;4.70;;;0.40;;
7661;SDS011;30314;48.184;11.510;2023-05-10T05:26:31;3.30;;;0.40;;
7661;SDS011;30314;48.184;11.510;2023-05-10T05:28:57;1.27;;;0.30;;
7661;SDS011;30314;48.184;11.510;2023-05-10T05:31:24;2.30;;;0.90;;
7661;SDS011;30314;48.184;11.510;2023-05-10T05:33:51;4.50;;;0.50;;
7661;SDS011;30314;48.184;11.510;2023-05-10T05:36:17;4.20;;;0.60;;
7661;SDS011;30314;48.184;11.510;2023-05-10T05:38:44;0.90;;;0.40;;
7661;SDS011;30314;48.184;11.510;2023-05-10T05:41:11;3.37;;;0.80;;
7661;SDS011;30314;48.184;11.510;2023-05-10T05:43:37;0.93;;;0.40;;
7661;SDS011;30314;48.184;11.510;2023-05-10T05:46:04;2.00;;;0.70;;
7661;SDS011;30314;48.184;11.510;2023-05-10T05:48:30;0.80;;;0.40;;
7661;SDS011;30314;48.184;11.510;2023-05-10T05:50:57;2.30;;;0.53;;
7661;SDS011;30314;48.184;11.510;2023-05-10T05:53:24;1.40;;;0.60;;
7661;SDS011;30314;48.184;11.510;2023-05-10T05:55:51;0.90;;;0.40;;
7661;SDS011;30314;48.184;11.510;2023-05-10T05:58:22;1.00;;;0.40;;
7661;SDS011;30314;48.184;11.510;2023-05-10T06:00:49;2.40;;;0.70;;
7661;SDS011;30314;48.184;11.510;2023-05-10T06:03:16;6.30;;;0.50;;
7661;SDS011;30314;48.184;11.510;2023-05-10T06:05:42;2.30;;;0.40;;
7661;SDS011;30314;48.184;11.510;2023-05-10T06:08:09;1.67;;;0.50;;
7661;SDS011;30314;48.184;11.510;2023-05-10T06:10:36;0.90;;;0.40;;
7661;SDS011;30314;48.184;11.510;2023-05-10T06:13:03;1.00;;;0.40;;
7661;SDS011;30314;48.184;11.510;2023-05-10T06:15:30;4.33;;;0.53;;
7661;SDS011;30314;48.184;11.510;2023-05-10T06:17:56;0.90;;;0.40;;
7661;SDS011;30314;48.184;11.510;2023-05-10T06:20:23;0.90;;;0.40;;
7661;SDS011;30314;48.184;11.510;2023-05-10T06:22:49;1.23;;;0.43;;
7661;SDS011;30314;48.184;11.510;2023-05-10T06:25:16;1.50;;;0.47;;
7661;SDS011;30314;48.184;11.510;2023-05-10T06:27:44;1.20;;;0.50;;
7661;SDS011;30314;48.184;11.510;2023-05-10T06:30:15;2.80;;;0.80;;
7661;SDS011;30314;48.184;11.510;2023-05-10T06:32:41;1.07;;;0.43;;
7661;SDS011;30314;48.184;11.510;2023-05-10T06:35:10;2.10;;;0.93;;
7661;SDS011;30314;48.184;11.510;2023-05-10T06:37:36;1.00;;;0.67;;
7661;SDS011;30314;48.184;11.510;2023-05-10T06:40:03;1.20;;;0.70;;
7661;SDS011;30314;48.184;11.510;2023-05-10T06:42:30;1.20;;;0.87;;
7661;SDS011;30314;48.184;11.510;2023-05-10T06:44:57;2.07;;;0.87;;
7661;SDS011;30314;48.184;11.510;2023-05-10T06:47:23;1.40;;;0.70;;
7661;SDS011;30314;48.184;11.510;2023-05-10T06:49:50;1.30;;;0.90;;
7661;SDS011;30314;48.184;11.510;2023-05-10T06:52:17;1.00;;;0.70;;
7661;SDS011;30314;48.184;11.510;2023-05-10T06:54:43;1.33;;;0.77;;
7661;SDS011;30314;48.184;11.510;2023-05-10T06:57:10;0.90;;;0.40;;
7661;SDS011;30314;48.184;11.510;2023-05-10T06:59:55;1.63;;;0.50;;
7661;SDS011;30314;48.184;11.510;2023-05-10T07:02:22;1.00;;;0.60;;
7661;SDS011;30314;48.184;11.510;2023-05-10T07:04:49;0.97;;;0.60;;
7661;SDS011;30314;48.184;11.510;2023-05-10T07:07:16;1.03;;;0.67;;
7661;SDS011;30314;48.184;11.510;2023-05-10T07:09:42;1.93;;;0.50;;
7661;SDS011;30314;48.184;11.510;2023-05-10T07:12:09;1.13;;;0.70;;
7661;SDS011;30314;48.184;11.510;2023-05-10T07:14:40;1.47;;;1.20;;
7661;SDS011;30314;48.184;11.510;2023-05-10T07:17:06;1.30;;;1.10;;
7661;SDS011;30314;48.184;11.510;2023-05-10T07:19:33;1.20;;;0.87;;
7661;SDS011;30314;48.184;11.510;2023-05-10T07:22:00;2.93;;;1.20;;
7661;SDS011;30314;48.184;11.510;2023-05-10T07:24:27;1.50;;;0.80;;
7661;SDS011;30314;48.184;11.510;2023-05-10T07:26:53;5.60;;;0.90;;
7661;SDS011;30314;48.184;11.510;2023-05-10T07:29:20;3.17;;;1.10;;
7661;SDS011;30314;48.184;11.510;2023-05-10T07:31:46;5.00;;;0.80;;
7661;SDS011;30314;48.184;11.510;2023-05-10T07:34:13;2.33;;;0.77;;
7661;SDS011;30314;48.184;11.510;2023-05-10T07:36:40;1.13;;;0.83;;
7661;SDS011;30314;48.184;11.510;2023-05-10T07:39:07;1.97;;;0.70;;
7661;SDS011;30314;48.184;11.510;2023-05-10T07:41:33;1.00;;;0.50;;
7661;SDS011;30314;48.184;11.510;2023-05-10T07:44:01;4.70;;;0.87;;
7661;SDS011;30314;48.184;11.510;2023-05-10T07:46:27;1.20;;;0.67;;
7661;SDS011;30314;48.184;11.510;2023-05-10T07:48:54;4.80;;;1.33;;
7661;SDS011;30314;48.184;11.510;2023-05-10T07:51:21;1.40;;;0.70;;
7661;SDS011;30314;48.184;11.510;2023-05-10T07:53:47;2.30;;;0.80;;
7661;SDS011;30314;48.184;11.510;2023-05-10T07:58:48;2.70;;;1.30;;
7661;SDS011;30314;48.184;11.510;2023-05-10T08:01:15;1.90;;;0.90;;
7661;SDS011;30314;48.184;11.510;2023-05-10T08:03:41;1.93;;;0.70;;
7661;SDS011;30314;48.184;11.510;2023-05-10T08:06:08;1.73;;;0.70;;
7661;SDS011;30314;48.184;11.510;2023-05-10T08:08:34;0.90;;;0.50;;
7661;SDS011;30314;48.184;11.510;2023-05-10T08:11:01;2.40;;;0.50;;
7661;SDS011;30314;48.184;11.510;2023-05-10T08:13:28;1.10;;;0.63;;
7661;SDS011;30314;48.184;11.510;2023-05-10T08:15:54;2.50;;;0.60;;
7661;SDS011;30314;48.184;11.510;2023-05-10T08:18:21;1.20;;;0.80;;
7661;SDS011;30314;48.184;11.510;2023-05-10T08:20:47;2.13;;;0.77;;
7661;SDS011;30314;48.184;11.510;2023-05-10T08:23:14;2.10;;;0.90;;
7661;SDS011;30314;48.184;11.510;2023-05-10T08:25:41;4.13;;;0.70;;
7661;SDS011;30314;48.184;11.510;2023-05-10T08:28:08;5.40;;;0.67;;
7661;SDS011;30314;48.184;11.510;2023-05-10T08:30:37;1.23;;;0.40;;
7661;SDS011;30314;48.184;11.510;2023-05-10T08:33:03;4.00;;;0.50;;
7661;SDS011;30314;48.184;11.510;2023-05-10T08:35:30;1.10;;;0.50;;
7661;SDS011;30314;48.184;11.510;2023-05-10T08:37:57;1.43;;;0.50;;
7661;SDS011;30314;48.184;11.510;2023-05-10T08:40:24;1.40;;;0.50;;
7661;SDS011;30314;48.184;11.510;2023-05-10T08:42:58;1.37;;;0.63;;
7661;SDS011;30314;48.184;11.510;2023-05-10T08:45:31;1.10;;;0.60;;
7661;SDS011;30314;48.184;11.510;2023-05-10T08:48:01;1.07;;;0.67;;
7661;SDS011;30314;48.184;11.510;2023-05-10T08:50:28;1.50;;;0.53;;
7661;SDS011;30314;48.184;11.510;2023-05-10T08:52:57;3.00;;;0.90;;
7661;SDS011;30314;48.184;11.510;2023-05-10T08:55:27;2.20;;;0.97;;
7661;SDS011;30314;48.184;11.510;2023-05-10T08:57:53;6.00;;;0.60;;
7661;SDS011;30314;48.184;11.510;2023-05-10T09:00:21;1.70;;;0.50;;
7661;SDS011;30314;48.184;11.510;2023-05-10T09:02:49;1.23;;;0.60;;
7661;SDS011;30314;48.184;11.510;2023-05-10T09:05:16;1.80;;;1.10;;
7661;SDS011;30314;48.184;11.510;2023-05-10T09:07:44;2.13;;;0.83;;
7661;SDS011;30314;48.184;11.510;2023-05-10T09:10:11;4.60;;;0.90;;
7661;SDS011;30314;48.184;11.510;2023-05-10T09:12:39;1.53;;;0.50;;
7661;SDS011;30314;48.184;11.510;2023-05-10T09:15:06;1.00;;;0.60;;
7661;SDS011;30314;48.184;11.510;2023-05-10T09:17:35;4.03;;;0.90;;
7661;SDS011;30314;48.184;11.510;2023-05-10T09:20:03;2.67;;;0.60;;
7661;SDS011;30314;48.184;11.510;2023-05-10T09:22:30;2.10;;;0.70;;
7661;SDS011;30314;48.184;11.510;2023-05-10T09:25:10;2.50;;;0.50;;
7661;SDS011;30314;48.184;11.510;2023-05-10T09:27:44;1.80;;;0.73;;
7661;SDS011;30314;48.184;11.510;2023-05-10T09:30:25;1.43;;;0.50;;
7661;SDS011;30314;48.184;11.510;2023-05-10T09:32:53;1.17;;;0.40;;
7661;SDS011;30314;48.184;11.510;2023-05-10T09:35:22;1.07;;;0.50;;
7661;SDS011;30314;48.184;11.510;2023-05-10T09:37:54;1.27;;;0.70;;
7661;SDS011;30314;48.184;11.510;2023-05-10T09:40:23;0.90;;;0.40;;
7661;SDS011;30314;48.184;11.510;2023-05-10T09:42:56;1.63;;;0.60;;
7661;SDS011;30314;48.184;11.510;2023-05-10T09:45:26;0.93;;;0.50;;
7661;SDS011;30314;48.184;11.510;2023-05-10T09:47:54;1.07;;;0.57;;
7661;SDS011;30314;48.184;11.510;2023-05-10T09:50:22;1.27;;;0.63;;
7661;SDS011;30314;48.184;11.510;2023-05-10T09:55:18;1.10;;;0.70;;
7661;SDS011;30314;48.184;11.510;2023-05-10T09:57:46;1.10;;;0.50;;
7661;SDS011;30314;48.184;11.510;2023-05-10T10:00:20;2.50;;;0.50;;
7661;SDS011;30314;48.184;11.510;2023-05-10T10:02:48;1.10;;;0.30;;
7661;SDS011;30314;48.184;11.510;2023-05-10T10:05:21;2.53;;;0.50;;
7661;SDS011;30314;48.184;11.510;2023-05-10T10:07:53;4.43;;;0.30;;
7661;SDS011;30314;48.184;11.510;2023-05-10T10:10:21;1.80;;;0.43;;
7661;SDS011;30314;48.184;11.510;2023-05-10T10:12:48;1.30;;;0.60;;
7661;SDS011;30314;48.184;11.510;2023-05-10T10:15:14;1.20;;;0.30;;
7661;SDS011;30314;48.184;11.510;2023-05-10T10:17:42;1.33;;;0.60;;
7661;SDS011;30314;48.184;11.510;2023-05-10T10:20:10;0.90;;;0.40;;
7661;SDS011;30314;48.184;11.510;2023-05-10T10:22:37;1.43;;;0.63;;
7661;SDS011;30314;48.184;11.510;2023-05-10T10:25:04;1.20;;;0.60;;
7661;SDS011;30314;48.184;11.510;2023-05-10T10:30:31;6.93;;;1.00;;
7661;SDS011;30314;48.184;11.510;2023-05-10T10:36:00;1.47;;;0.70;;
7661;SDS011;30314;48.184;11.510;2023-05-10T10:41:30;4.17;;;0.80;;
7661;SDS011;30314;48.184;11.510;2023-05-10T10:49:25;2.40;;;0.60;;
7661;SDS011;30314;48.184;11.510;2023-05-10T10:55:05;1.20;;;0.40;;
7661;SDS011;30314;48.184;11.510;2023-05-10T10:57:48;2.17;;;0.47;;
7661;SDS011;30314;48.184;11.510;2023-05-10T11:02:54;4.30;;;0.90;;
7661;SDS011;30314;48.184;11.510;2023-05-10T11:07:55;5.57;;;2.23;;
7661;SDS011;30314;48.184;11.510;2023-05-10T11:10:24;6.80;;;0.77;;
7661;SDS011;30314;48.184;11.510;2023-05-10T11:15:20;3.73;;;0.90;;
7661;SDS011;30314;48.184;11.510;2023-05-10T11:17:54;2.87;;;0.70;;
7661;SDS011;30314;48.184;11.510;2023-05-10T11:20:22;2.80;;;0.67;;
7661;SDS011;30314;48.184;11.510;2023-05-10T11:22:51;1.43;;;0.50;;
7661;SDS011;30314;48.184;11.510;2023-05-10T11:25:19;2.40;;;0.53;;
7661;SDS011;30314;48.184;11.510;2023-05-10T11:27:47;3.30;;;0.53;;
7661;SDS011;30314;48.184;11.510;2023-05-10T11:30:14;1.33;;;0.87;;
7661;SDS011;30314;48.184;11.510;2023-05-10T11:32:41;4.90;;;1.20;;
7661;SDS011;30314;48.184;11.510;2023-05-10T11:35:08;2.83;;;1.13;;
7661;SDS011;30314;48.184;11.510;2023-05-10T11:37:36;3.30;;;0.87;;
7661;SDS011;30314;48.184;11.510;2023-05-10T11:40:07;1.20;;;0.90;;
7661;SDS011;30314;48.184;11.510;2023-05-10T11:42:36;3.43;;;1.10;;
7661;SDS011;30314;48.184;11.510;2023-05-10T11:45:03;2.60;;;1.37;;
7661;SDS011;30314;48.184;11.510;2023-05-10T11:47:31;1.53;;;1.10;;
7661;SDS011;30314;48.184;11.510;2023-05-10T11:49:58;4.53;;;0.80;;
7661;SDS011;30314;48.184;11.510;2023-05-10T11:52:25;1.90;;;0.67;;
7661;SDS011;30314;48.184;11.510;2023-05-10T11:54:52;4.30;;;0.90;;
7661;SDS011;30314;48.184;11.510;2023-05-10T11:57:20;4.03;;;0.70;;
7661;SDS011;30314;48.184;11.510;2023-05-10T11:59:47;2.53;;;0.83;;
7661;SDS011;30314;48.184;11.510;2023-05-10T12:02:13;2.20;;;0.80;;
7661;SDS011;30314;48.184;11.510;2023-05-10T12:04:41;1.03;;;0.40;;
7661;SDS011;30314;48.184;11.510;2023-05-10T12:07:08;1.20;;;0.77;;
7661;SDS011;30314;48.184;11.510;2023-05-10T12:09:35;2.50;;;0.80;;
7661;SDS011;30314;48.184;11.510;2023-05-10T12:12:09;1.20;;;0.60;;
7661;SDS011;30314;48.184;11.510;2023-05-10T12:14:36;3.90;;;1.40;;
7661;SDS011;30314;48.184;11.510;2023-05-10T12:17:03;3.37;;;1.23;;
7661;SDS011;30314;48.184;11.510;2023-05-10T12:19:36;1.63;;;0.97;;
7661;SDS011;30314;48.184;11.510;2023-05-10T12:22:04;2.27;;;1.63;;
7661;SDS011;30314;48.184;11.510;2023-05-10T12:24:33;13.80;;;1.40;;
7661;SDS011;30314;48.184;11.510;2023-05-10T12:27:04;1.90;;;1.43;;
7661;SDS011;30314;48.184;11.510;2023-05-10T12:29:32;2.80;;;1.33;;
7661;SDS011;30314;48.184;11.510;2023-05-10T12:31:59;4.27;;;1.67;;
7661;SDS011;30314;48.184;11.510;2023-05-10T12:34:27;2.50;;;1.30;;
7661;SDS011;30314;48.184;11.510;2023-05-10T12:36:57;3.03;;;1.20;;
7661;SDS011;30314;48.184;11.510;2023-05-10T12:39:25;2.77;;;1.30;;
7661;SDS011;30314;48.184;11.510;2023-05-10T12:41:51;1.50;;;1.03;;
7661;SDS011;30314;48.184;11.510;2023-05-10T12:44:18;1.73;;;1.20;;
7661;SDS011;30314;48.184;11.510;2023-05-10T12:46:45;1.90;;;0.60;;
7661;SDS011;30314;48.184;11.510;2023-05-10T12:49:11;1.73;;;0.70;;
7661;SDS011;30314;48.184;11.510;2023-05-10T12:51:38;1.60;;;0.40;;
7661;SDS011;30314;48.184;11.510;2023-05-10T12:54:04;1.73;;;0.50;;
7661;SDS011;30314;48.184;11.510;2023-05-10T12:56:31;2.50;;;1.07;;
7661;SDS011;30314;48.184;11.510;2023-05-10T12:58:58;1.60;;;0.50;;
7661;SDS011;30314;48.184;11.510;2023-05-10T13:01:24;2.07;;;0.40;;
7661;SDS011;30314;48.184;11.510;2023-05-10T13:03:51;2.60;;;0.73;;
7661;SDS011;30314;48.184;11.510;2023-05-10T13:06:17;1.23;;;0.53;;
7661;SDS011;30314;48.184;11.510;2023-05-10T13:08:44;1.40;;;0.77;;
7661;SDS011;30314;48.184;11.510;2023-05-10T13:11:13;1.10;;;0.73;;
7661;SDS011;30314;48.184;11.510;2023-05-10T13:13:42;1.60;;;0.80;;
7661;SDS011;30314;48.184;11.510;2023-05-10T13:16:09;1.13;;;0.70;;
7661;SDS011;30314;48.184;11.510;2023-05-10T13:18:35;3.30;;;0.80;;
7661;SDS011;30314;48.184;11.510;2023-05-10T13:21:02;3.43;;;0.60;;
7661;SDS011;30314;48.184;11.510;2023-05-10T13:23:31;1.50;;;0.60;;
7661;SDS011;30314;48.184;11.510;2023-05-10T13:25:57;2.00;;;0.60;;
7661;SDS011;30314;48.184;11.510;2023-05-10T13:28:24;6.33;;;0.80;;
7661;SDS011;30314;48.184;11.510;2023-05-10T13:30:52;11.00;;;1.37;;
7661;SDS011;30314;48.184;11.510;2023-05-10T13:33:20;4.27;;;1.10;;
7661;SDS011;30314;48.184;11.510;2023-05-10T13:35:46;2.80;;;0.97;;
7661;SDS011;30314;48.184;11.510;2023-05-10T13:38:13;2.53;;;1.20;;
7661;SDS011;30314;48.184;11.510;2023-05-10T13:40:40;2.70;;;1.30;;
7661;SDS011;30314;48.184;11.510;2023-05-10T13:43:06;2.30;;;0.90;;
7661;SDS011;30314;48.184;11.510;2023-05-10T13:45:33;4.70;;;1.53;;
7661;SDS011;30314;48.184;11.510;2023-05-10T13:47:59;1.50;;;1.20;;
7661;SDS011;30314;48.184;11.510;2023-05-10T13:50:26;2.50;;;1.33;;
7661;SDS011;30314;48.184;11.510;2023-05-10T13:52:53;2.30;;;1.47;;
7661;SDS011;30314;48.184;11.510;2023-05-10T13:55:19;3.00;;;1.27;;
7661;SDS011;30314;48.184;11.510;2023-05-10T13:57:46;2.70;;;1.00;;
7661;SDS011;30314;48.184;11.510;2023-05-10T14:00:13;3.17;;;1.40;;
7661;SDS011;30314;48.184;11.510;2023-05-10T14:02:41;2.00;;;0.87;;
7661;SDS011;30314;48.184;11.510;2023-05-10T14:05:08;1.63;;;0.87;;
7661;SDS011;30314;48.184;11.510;2023-05-10T14:07:34;9.53;;;1.73;;
7661;SDS011;30314;48.184;11.510;2023-05-10T14:10:01;2.13;;;0.93;;
7661;SDS011;30314;48.184;11.510;2023-05-10T14:12:27;2.40;;;1.20;;
7661;SDS011;30314;48.184;11.510;2023-05-10T14:14:54;2.13;;;1.50;;
7661;SDS011;30314;48.184;11.510;2023-05-10T14:17:20;3.67;;;1.80;;
7661;SDS011;30314;48.184;11.510;2023-05-10T14:19:48;5.37;;;1.37;;
7661;SDS011;30314;48.184;11.510;2023-05-10T14:22:15;3.03;;;1.13;;
7661;SDS011;30314;48.184;11.510;2023-05-10T14:24:41;1.90;;;1.00;;
7661;SDS011;30314;48.184;11.510;2023-05-10T14:27:09;1.87;;;1.47;;
7661;SDS011;30314;48.184;11.510;2023-05-10T14:29:36;3.33;;;1.03;;
7661;SDS011;30314;48.184;11.510;2023-05-10T14:32:02;3.60;;;0.90;;
7661;SDS011;30314;48.184;11.510;2023-05-10T14:34:29;1.97;;;1.00;;
7661;SDS011;30314;48.184;11.510;2023-05-10T14:36:56;1.20;;;0.80;;
7661;SDS011;30314;48.184;11.510;2023-05-10T14:39:22;4.67;;;2.77;;
7661;SDS011;30314;48.184;11.510;2023-05-10T14:41:49;1.73;;;1.23;;
7661;SDS011;30314;48.184;11.510;2023-05-10T14:44:17;1.20;;;0.70;;
7661;SDS011;30314;48.184;11.510;2023-05-10T14:46:44;2.40;;;1.03;;
7661;SDS011;30314;48.184;11.510;2023-05-10T14:49:11;4.60;;;0.80;;
7661;SDS011;30314;48.184;11.510;2023-05-10T14:51:37;8.93;;;1.30;;
7661;SDS011;30314;48.184;11.510;2023-05-10T14:54:04;4.40;;;1.47;;
7661;SDS011;30314;48.184;11.510;2023-05-10T14:56:31;2.40;;;1.33;;
7661;SDS011;30314;48.184;11.510;2023-05-10T14:58:57;3.47;;;0.90;;
7661;SDS011;30314;48.184;11.510;2023-05-10T15:01:25;2.10;;;0.80;;
7661;SDS011;30314;48.184;11.510;2023-05-10T15:03:52;5.37;;;1.10;;
7661;SDS011;30314;48.184;11.510;2023-05-10T15:06:22;1.73;;;0.80;;
7661;SDS011;30314;48.184;11.510;2023-05-10T15:08:51;1.60;;;0.63;;
7661;SDS011;30314;48.184;11.510;2023-05-10T15:11:18;2.60;;;0.87;;
7661;SDS011;30314;48.184;11.510;2023-05-10T15:13:44;2.70;;;1.20;;
7661;SDS011;30314;48.184;11.510;2023-05-10T15:16:11;1.73;;;0.87;;
7661;SDS011;30314;48.184;11.510;2023-05-10T15:18:37;8.40;;;1.67;;
7661;SDS011;30314;48.184;11.510;2023-05-10T15:21:04;2.07;;;1.13;;
7661;SDS011;30314;48.184;11.510;2023-05-10T15:23:30;2.03;;;1.00;;
7661;SDS011;30314;48.184;11.510;2023-05-10T15:25:58;2.17;;;0.97;;
7661;SDS011;30314;48.184;11.510;2023-05-10T15:28:24;11.30;;;1.10;;
7661;SDS011;30314;48.184;11.510;2023-05-10T15:30:51;1.83;;;1.00;;
7661;SDS011;30314;48.184;11.510;2023-05-10T15:33:17;11.00;;;1.57;;
7661;SDS011;30314;48.184;11.510;2023-05-10T15:35:44;1.60;;;1.20;;
7661;SDS011;30314;48.184;11.510;2023-05-10T15:38:11;1.80;;;1.00;;
7661;SDS011;30314;48.184;11.510;2023-05-10T15:40:37;2.40;;;1.50;;
7661;SDS011;30314;48.184;11.510;2023-05-10T15:43:04;2.30;;;1.50;;